Pagina principale
METAR-TAF:

METAR-TAF

Aeroporti :

Aeroporto di Burgas

Burgas, Bulgaria

latitudine: 42-29N, longitudine: 027-29E, altezza: 16 m

Osservazione

Il bollettino è stato emesso 49 minuti fa, alle 00:30 UTC
Vento 6 kt da nord-est
Temperature 23°C
Umidità 73%
Pressione 1018 hPa
Visibilità 10 km o più

METAR: LBBG 210030Z AUTO 05006KT 9999 NCD 23/18 Q1018 NOSIG

Ora: 04:19 (01:19 UTC)

Previsione

Il bollettino è stato emesso 2 ore e 19 minuti fa, alle 23:00 UTC
Previsione valida dal 21 alle 00 UTC al 21 alle 24 UTC
Vento 8 kt da nord/nord-est
Visibilità 10 km o più
nessuna nube inferiore a 1500 m e nessun cumulonembo
Evoluzione graduale
dal 21 alle 05 UTC al 21 alle 07 UTC
Vento 14 kt da est
Visibilità 10 km o più
Nubi sparse ad un'altezza di 4000 ft
Evoluzione graduale
dal 21 alle 20 UTC al 21 alle 22 UTC
Vento 4 kt da direzioni variabili

TAF: LBBG 202300Z 2100/2124 03008KT CAVOK BECMG 2105/2107 09014KT 9999 SCT040 BECMG 2120/2122 VRB04KT

Osservazioni e previsioni meteorologiche di più di 4000 aeroporti (messaggi METAR e TAF).

Le stazioni disponibili sono rappresentate dai dischi gialli e rossi sulla carta.

Puntare il mouse per vedere il nome della stazione.

Clicca sopra per visualizzare le osservazioni e previsioni meteorologiche.

Per cambiare la mappa : fare clic sui pulsanti verdi con una croce nera per ingrandire, il pulsante verde con un trattino per diminuire, o sulla freccia verde per le mappe adiacenti.


METAR-TAF: